« Back
NWS Peachtree City, Ga » Text Product » AHN Terminal Aerodrome Forecast


Printer-friendly Version
Current Version              Previous Versions:   1  2  3  4  5  6  7  8  9  

Terminal Aerodrome Forecast

803
FTAK31 PAJN 311720
TAFAHN
TAF
PAHN 311720Z 3118/0118 30009KT P6SM -SHRA BKN040 OVC050
     FM010000 31010KT P6SM VCSH BKN040 OVC070
      AMD LTD TO CLD VIS AND WIND=



USA.gov is the U.S. government's official web portal to all federal, state and local government web resources and services.